createdAt,value
2023-03-25T00:01:03.927Z,95.04
2023-03-25T00:03:33.734Z,95.84
2023-03-25T00:06:00.411Z,95.64
2023-03-25T00:08:27.366Z,96.71
2023-03-25T00:10:54.809Z,96.38
2023-03-25T00:13:21.529Z,96.33
2023-03-25T00:15:48.659Z,93.75
2023-03-25T00:18:18.374Z,97.16
2023-03-25T00:20:45.965Z,99.39
2023-03-25T00:23:13.050Z,100.00
2023-03-25T00:25:39.593Z,100.00
2023-03-25T00:28:06.088Z,99.15
2023-03-25T00:30:32.590Z,98.33
2023-03-25T00:33:01.651Z,95.29
2023-03-25T00:35:29.021Z,98.97
2023-03-25T00:38:00.222Z,100.00
2023-03-25T00:40:28.494Z,100.00
2023-03-25T00:42:55.579Z,100.00
2023-03-25T00:45:22.304Z,100.00
2023-03-25T00:47:48.778Z,100.00
2023-03-25T00:50:15.430Z,100.00
2023-03-25T00:52:41.906Z,100.00
2023-03-25T00:55:08.520Z,100.00
2023-03-25T00:57:35.308Z,100.00
2023-03-25T01:00:02.091Z,100.00
2023-03-25T01:02:28.671Z,100.00
2023-03-25T01:04:57.614Z,100.00
2023-03-25T01:07:24.170Z,100.00
2023-03-25T01:09:50.953Z,100.00
2023-03-25T01:12:18.971Z,100.00
2023-03-25T01:14:46.340Z,100.00
2023-03-25T01:17:14.580Z,100.00
2023-03-25T01:19:41.171Z,100.00
2023-03-25T01:22:07.874Z,100.00
2023-03-25T01:24:35.079Z,100.00
2023-03-25T01:27:01.602Z,100.00
2023-03-25T01:29:28.881Z,100.00
2023-03-25T01:31:55.675Z,100.00
2023-03-25T01:34:22.230Z,100.00
2023-03-25T01:36:49.697Z,100.00
2023-03-25T01:39:18.779Z,100.00
2023-03-25T01:41:50.068Z,100.00
2023-03-25T01:44:20.613Z,100.00
2023-03-25T01:46:49.404Z,100.00
2023-03-25T01:49:23.451Z,100.00
2023-03-25T01:52:05.471Z,100.00
2023-03-25T01:54:32.821Z,100.00
2023-03-25T01:56:59.499Z,100.00
2023-03-25T01:59:27.195Z,100.00
2023-03-25T02:01:55.295Z,100.00
2023-03-25T02:04:27.292Z,100.00
2023-03-25T02:06:54.406Z,100.00
2023-03-25T02:09:22.637Z,100.00
2023-03-25T02:11:49.228Z,100.00
2023-03-25T02:14:18.794Z,100.00
2023-03-25T02:16:55.257Z,100.00
2023-03-25T02:19:40.915Z,100.00
2023-03-25T02:22:17.175Z,100.00
2023-03-25T02:24:54.491Z,100.00
2023-03-25T02:27:27.621Z,100.00
2023-03-25T02:30:11.136Z,100.00
2023-03-25T02:32:40.715Z,100.00
2023-03-25T02:35:07.545Z,100.00
2023-03-25T02:37:34.285Z,100.00
2023-03-25T02:40:07.070Z,100.00
2023-03-25T02:42:33.543Z,100.00
2023-03-25T02:45:08.916Z,100.00
2023-03-25T02:47:37.764Z,99.07
2023-03-25T02:50:07.835Z,97.99
2023-03-25T02:52:39.755Z,100.00
2023-03-25T02:55:10.369Z,99.91
2023-03-25T02:57:42.080Z,100.00
2023-03-25T03:00:15.515Z,100.00
2023-03-25T03:02:45.333Z,100.00
2023-03-25T03:05:23.352Z,100.00
2023-03-25T03:07:51.935Z,100.00
2023-03-25T03:10:35.197Z,100.00
2023-03-25T03:13:08.728Z,100.00
2023-03-25T03:15:41.310Z,100.00
2023-03-25T03:18:14.344Z,100.00
2023-03-25T03:20:44.315Z,100.00
2023-03-25T03:23:18.051Z,100.00
2023-03-25T03:25:54.004Z,100.00
2023-03-25T03:28:35.908Z,100.00
2023-03-25T03:31:15.458Z,100.00
2023-03-25T03:34:05.613Z,100.00
2023-03-25T03:36:37.331Z,100.00
2023-03-25T03:39:10.914Z,100.00
2023-03-25T03:41:41.288Z,100.00
2023-03-25T03:44:10.988Z,100.00
2023-03-25T03:46:40.052Z,100.00
2023-03-25T03:49:09.465Z,100.00
2023-03-25T03:51:38.151Z,100.00
2023-03-25T03:54:08.193Z,100.00
2023-03-25T03:56:54.927Z,100.00
2023-03-25T03:59:30.404Z,100.00
2023-03-25T04:01:59.918Z,100.00
2023-03-25T04:04:26.818Z,100.00
2023-03-25T04:07:10.763Z,100.00
2023-03-25T04:09:41.875Z,100.00
2023-03-25T04:12:11.330Z,100.00
2023-03-25T04:14:37.979Z,100.00
2023-03-25T04:17:04.946Z,100.00
2023-03-25T04:19:34.048Z,100.00
2023-03-25T04:22:01.686Z,100.00
2023-03-25T04:24:31.439Z,100.00
2023-03-25T04:26:59.817Z,100.00
2023-03-25T04:29:26.232Z,100.00
2023-03-25T04:31:56.163Z,100.00
2023-03-25T04:34:22.886Z,100.00
2023-03-25T04:36:52.427Z,100.00
2023-03-25T04:39:22.442Z,100.00
2023-03-25T04:41:49.880Z,100.00
2023-03-25T04:44:16.960Z,100.00
2023-03-25T04:46:43.705Z,100.00
2023-03-25T04:49:19.120Z,100.00
2023-03-25T04:51:45.623Z,100.00
2023-03-25T04:54:12.224Z,100.00
2023-03-25T04:56:39.785Z,100.00
2023-03-25T04:59:06.508Z,100.00
2023-03-25T05:01:33.071Z,100.00
2023-03-25T05:04:05.076Z,100.00
2023-03-25T05:06:35.526Z,100.00
2023-03-25T05:09:04.216Z,100.00
2023-03-25T05:11:31.741Z,100.00
2023-03-25T05:13:58.191Z,100.00
2023-03-25T05:16:24.782Z,100.00
2023-03-25T05:18:51.299Z,100.00
2023-03-25T05:21:17.940Z,100.00
2023-03-25T05:23:44.854Z,100.00
2023-03-25T05:26:14.825Z,100.00
2023-03-25T05:28:42.330Z,100.00
2023-03-25T05:31:08.966Z,100.00
2023-03-25T05:33:37.179Z,100.00
2023-03-25T05:36:04.560Z,100.00
2023-03-25T05:38:33.150Z,100.00
2023-03-25T05:41:00.387Z,100.00
2023-03-25T05:43:26.853Z,100.00
2023-03-25T05:45:53.601Z,100.00
2023-03-25T05:48:20.296Z,100.00
2023-03-25T05:50:46.733Z,100.00
2023-03-25T05:53:15.512Z,100.00
2023-03-25T05:55:42.089Z,100.00
2023-03-25T05:58:08.618Z,100.00
2023-03-25T06:00:37.167Z,100.00
2023-03-25T06:03:06.346Z,100.00
2023-03-25T06:05:33.793Z,100.00
2023-03-25T06:08:01.806Z,100.00
2023-03-25T06:10:28.270Z,100.00
2023-03-25T06:12:55.141Z,100.00
2023-03-25T06:15:28.930Z,100.00
2023-03-25T06:17:56.801Z,100.00
2023-03-25T06:20:23.394Z,100.00
2023-03-25T06:22:49.947Z,100.00
2023-03-25T06:25:18.879Z,100.00
2023-03-25T06:27:45.963Z,100.00
2023-03-25T06:30:17.431Z,100.00
2023-03-25T06:32:44.082Z,100.00
2023-03-25T06:35:11.666Z,100.00
2023-03-25T06:37:38.807Z,100.00
2023-03-25T06:40:11.286Z,100.00
2023-03-25T06:42:38.128Z,100.00
2023-03-25T06:45:42.972Z,100.00
2023-03-25T06:48:19.323Z,100.00
2023-03-25T06:50:45.994Z,100.00
2023-03-25T06:53:12.602Z,100.00
2023-03-25T06:55:39.327Z,100.00
2023-03-25T06:58:06.038Z,100.00
2023-03-25T07:00:32.594Z,99.98
2023-03-25T07:02:59.178Z,100.00
2023-03-25T07:05:26.024Z,99.47
2023-03-25T07:07:52.509Z,98.84
2023-03-25T07:10:19.235Z,99.52
2023-03-25T07:12:46.006Z,100.00
2023-03-25T07:15:12.748Z,100.00
2023-03-25T07:17:43.092Z,100.00
2023-03-25T07:20:12.495Z,100.00
2023-03-25T07:22:40.063Z,99.05
2023-03-25T07:25:06.642Z,99.75
2023-03-25T07:27:33.169Z,100.00
2023-03-25T07:30:06.024Z,100.00
2023-03-25T07:32:32.589Z,99.85
2023-03-25T07:34:59.192Z,96.94
2023-03-25T07:37:25.686Z,92.66
2023-03-25T07:39:52.160Z,91.40
2023-03-25T07:42:18.630Z,89.44
2023-03-25T07:45:12.017Z,87.65
2023-03-25T07:47:40.792Z,87.71
2023-03-25T07:50:07.739Z,86.40
2023-03-25T07:52:36.095Z,85.88
2023-03-25T07:55:02.598Z,87.25
2023-03-25T07:57:29.093Z,85.47
2023-03-25T07:59:55.602Z,81.36
2023-03-25T08:02:22.073Z,79.96
2023-03-25T08:04:48.560Z,80.81
2023-03-25T08:07:15.454Z,79.33
2023-03-25T08:09:42.480Z,77.33
2023-03-25T08:12:09.590Z,78.07
2023-03-25T08:14:36.130Z,78.16
2023-03-25T08:17:02.697Z,76.53
2023-03-25T08:19:29.179Z,75.62
2023-03-25T08:21:56.021Z,75.97
2023-03-25T08:24:24.561Z,76.15
2023-03-25T08:26:51.036Z,75.85
2023-03-25T08:29:17.914Z,77.79
2023-03-25T08:31:46.787Z,77.52
2023-03-25T08:34:13.794Z,79.15
2023-03-25T08:36:40.237Z,79.53
2023-03-25T08:39:11.614Z,78.14
2023-03-25T08:41:39.062Z,77.95
2023-03-25T08:44:06.069Z,79.11
2023-03-25T08:46:32.687Z,80.94
2023-03-25T08:48:59.160Z,84.96
2023-03-25T08:51:25.956Z,86.86
2023-03-25T08:53:52.423Z,88.70
2023-03-25T08:56:18.872Z,87.62
2023-03-25T08:58:45.572Z,90.40
2023-03-25T09:01:12.264Z,88.38
2023-03-25T09:03:40.873Z,88.53
2023-03-25T09:06:08.149Z,88.18
2023-03-25T09:08:34.929Z,88.81
2023-03-25T09:11:01.488Z,87.40
2023-03-25T09:13:28.224Z,86.61
2023-03-25T09:15:54.937Z,86.08
2023-03-25T09:18:21.588Z,86.90
2023-03-25T09:20:48.380Z,85.45
2023-03-25T09:23:15.371Z,85.34
2023-03-25T09:25:42.946Z,83.35
2023-03-25T09:28:09.434Z,81.50
2023-03-25T09:30:35.906Z,80.28
2023-03-25T09:33:02.745Z,82.18
2023-03-25T09:35:29.263Z,81.52
2023-03-25T09:37:55.944Z,81.60
2023-03-25T09:40:22.645Z,85.91
2023-03-25T09:42:58.523Z,84.63
2023-03-25T09:45:29.208Z,86.17
2023-03-25T09:48:03.118Z,83.33
2023-03-25T09:50:30.811Z,81.85
2023-03-25T09:53:04.893Z,79.03
2023-03-25T09:55:34.367Z,78.82
2023-03-25T09:58:05.016Z,77.44
2023-03-25T10:00:31.771Z,78.32
2023-03-25T10:03:16.782Z,78.29
2023-03-25T10:05:49.799Z,80.34
2023-03-25T10:08:22.763Z,77.38
2023-03-25T10:10:55.539Z,78.41
2023-03-25T10:13:25.485Z,76.37
2023-03-25T10:15:58.987Z,77.42
2023-03-25T10:18:28.358Z,78.86
2023-03-25T10:21:04.094Z,79.40
2023-03-25T10:23:30.566Z,75.88
2023-03-25T10:26:01.121Z,77.04
2023-03-25T10:28:31.219Z,77.09
2023-03-25T10:30:57.811Z,75.67
2023-03-25T10:33:24.237Z,74.73
2023-03-25T10:35:50.957Z,74.79
2023-03-25T10:38:24.172Z,74.39
2023-03-25T10:40:52.974Z,75.90
2023-03-25T10:43:22.530Z,73.47
2023-03-25T10:45:50.264Z,73.24
2023-03-25T10:48:21.366Z,73.44
2023-03-25T10:50:49.086Z,73.39
2023-03-25T10:53:21.478Z,73.85
2023-03-25T10:55:52.859Z,73.36
2023-03-25T10:58:19.427Z,71.29
2023-03-25T11:00:46.068Z,72.13
2023-03-25T11:03:22.167Z,70.02
2023-03-25T11:05:49.258Z,70.38
2023-03-25T11:08:24.431Z,70.86
2023-03-25T11:10:56.988Z,70.77
2023-03-25T11:13:25.135Z,70.49
2023-03-25T11:15:53.530Z,69.98
2023-03-25T11:18:28.866Z,69.59
2023-03-25T11:21:09.322Z,69.92
2023-03-25T11:23:49.960Z,69.36
2023-03-25T11:26:24.722Z,68.75
2023-03-25T11:28:56.078Z,67.93
2023-03-25T11:31:27.695Z,69.99
2023-03-25T11:34:03.495Z,69.35
2023-03-25T11:36:31.088Z,69.83
2023-03-25T11:38:59.500Z,68.48
2023-03-25T11:41:30.721Z,66.42
2023-03-25T11:43:57.397Z,68.56
2023-03-25T11:46:24.591Z,68.26
2023-03-25T11:48:51.427Z,68.50
2023-03-25T11:51:23.015Z,67.73
2023-03-25T11:53:55.325Z,68.10
2023-03-25T11:56:23.409Z,68.64
2023-03-25T11:58:50.739Z,69.39
2023-03-25T12:01:21.403Z,66.69
2023-03-25T12:03:48.084Z,66.70
2023-03-25T12:06:19.365Z,66.24
2023-03-25T12:08:59.822Z,66.62
2023-03-25T12:11:51.920Z,67.24
2023-03-25T12:14:37.315Z,66.58
2023-03-25T12:17:12.791Z,65.46
2023-03-25T12:19:51.823Z,66.81
2023-03-25T12:22:21.353Z,65.59
2023-03-25T12:24:47.789Z,66.02
2023-03-25T12:27:17.297Z,67.12
2023-03-25T12:29:50.240Z,66.64
2023-03-25T12:32:25.447Z,68.38
2023-03-25T12:35:10.833Z,66.41
2023-03-25T12:37:49.691Z,67.13
2023-03-25T12:40:30.539Z,66.58
2023-03-25T12:43:17.212Z,66.85
2023-03-25T12:45:49.683Z,65.96
2023-03-25T12:48:16.205Z,65.70
2023-03-25T12:50:52.108Z,66.50
2023-03-25T12:53:41.016Z,65.50
2023-03-25T12:56:29.788Z,64.07
2023-03-25T12:59:00.011Z,63.39
2023-03-25T13:01:49.275Z,61.37
2023-03-25T13:04:25.344Z,58.52
2023-03-25T13:07:04.291Z,58.21
2023-03-25T13:09:36.903Z,58.91
2023-03-25T13:12:09.016Z,58.69
2023-03-25T13:14:35.622Z,58.26
2023-03-25T13:17:05.503Z,57.68
2023-03-25T13:19:39.234Z,57.48
2023-03-25T13:22:13.583Z,57.82
2023-03-25T13:24:46.111Z,54.00
2023-03-25T13:27:13.748Z,50.84
2023-03-25T13:29:44.444Z,48.84
2023-03-25T13:32:33.821Z,49.55
2023-03-25T13:35:07.162Z,46.80
2023-03-25T13:37:38.783Z,46.58
2023-03-25T13:40:11.804Z,45.59
2023-03-25T13:42:43.211Z,46.76
2023-03-25T13:45:15.897Z,46.70
2023-03-25T13:47:44.646Z,47.07
2023-03-25T13:50:17.481Z,46.28
2023-03-25T13:52:46.764Z,45.11
2023-03-25T13:55:15.616Z,42.47
2023-03-25T13:58:17.747Z,40.83
2023-03-25T14:00:53.433Z,42.82
2023-03-25T14:03:20.548Z,43.58
2023-03-25T14:06:07.734Z,42.70
2023-03-25T14:08:34.174Z,41.07
2023-03-25T14:11:15.953Z,40.57
2023-03-25T14:13:45.142Z,39.65
2023-03-25T14:16:16.280Z,41.17
2023-03-25T14:18:50.714Z,40.64
2023-03-25T14:21:28.266Z,41.60
2023-03-25T14:24:03.392Z,39.46
2023-03-25T14:26:29.969Z,38.95
2023-03-25T14:28:58.129Z,39.79
2023-03-25T14:31:32.330Z,39.78
2023-03-25T14:34:04.856Z,40.60
2023-03-25T14:36:51.879Z,42.52
2023-03-25T14:39:21.478Z,44.60
2023-03-25T14:42:00.402Z,43.80
2023-03-25T14:44:29.247Z,43.67
2023-03-25T14:47:02.177Z,44.60
2023-03-25T14:49:47.115Z,43.99
2023-03-25T14:52:15.751Z,42.08
2023-03-25T14:54:43.698Z,42.57
2023-03-25T14:57:23.015Z,44.82
2023-03-25T15:00:09.388Z,45.86
2023-03-25T15:02:37.502Z,43.24
2023-03-25T15:05:13.728Z,42.31
2023-03-25T15:07:48.116Z,42.37
2023-03-25T15:10:25.392Z,42.40
2023-03-25T15:12:55.300Z,41.19
2023-03-25T15:15:29.669Z,43.26
2023-03-25T15:17:57.372Z,41.70
2023-03-25T15:20:26.333Z,42.82
2023-03-25T15:23:12.049Z,40.90
2023-03-25T15:25:39.171Z,40.65
2023-03-25T15:28:16.145Z,39.15
2023-03-25T15:30:54.755Z,39.91
2023-03-25T15:33:21.504Z,40.66
2023-03-25T15:35:51.709Z,40.42
2023-03-25T15:38:24.694Z,38.50
2023-03-25T15:41:16.564Z,37.67
2023-03-25T15:43:57.825Z,37.68
2023-03-25T15:46:30.626Z,36.36
2023-03-25T15:49:16.240Z,39.49
2023-03-25T15:52:02.397Z,39.54
2023-03-25T15:54:38.062Z,39.12
2023-03-25T15:57:24.262Z,37.63
2023-03-25T16:00:06.500Z,39.93
2023-03-25T16:02:39.177Z,37.59
2023-03-25T16:05:07.064Z,38.23
2023-03-25T16:07:34.151Z,39.84
2023-03-25T16:10:05.203Z,40.23
2023-03-25T16:12:31.696Z,40.86
2023-03-25T16:14:58.906Z,41.69
2023-03-25T16:17:29.073Z,41.93
2023-03-25T16:19:56.421Z,41.41
2023-03-25T16:22:27.703Z,42.85
2023-03-25T16:24:56.147Z,43.60
2023-03-25T16:27:29.365Z,44.20
2023-03-25T16:29:56.779Z,44.41
2023-03-25T16:32:24.701Z,45.60
2023-03-25T16:34:53.999Z,47.13
2023-03-25T16:37:21.747Z,47.00
2023-03-25T16:39:52.439Z,46.16
2023-03-25T16:42:32.782Z,45.85
2023-03-25T16:44:59.301Z,46.86
2023-03-25T16:47:25.860Z,48.39
2023-03-25T16:49:54.014Z,49.51
2023-03-25T16:52:23.999Z,49.58
2023-03-25T16:54:50.448Z,50.06
2023-03-25T16:57:18.773Z,53.14
2023-03-25T16:59:46.728Z,51.21
2023-03-25T17:02:27.266Z,51.38
2023-03-25T17:04:55.937Z,52.24
2023-03-25T17:07:29.634Z,51.38
2023-03-25T17:09:58.153Z,51.23
2023-03-25T17:12:26.316Z,52.17
2023-03-25T17:14:56.546Z,51.43
2023-03-25T17:17:23.034Z,53.70
2023-03-25T17:19:51.508Z,58.45
2023-03-25T17:22:26.114Z,63.91
2023-03-25T17:25:11.839Z,63.68
2023-03-25T17:27:39.185Z,60.05
2023-03-25T17:30:31.950Z,64.18
2023-03-25T17:33:13.218Z,68.39
2023-03-25T17:35:41.535Z,70.50
2023-03-25T17:38:13.032Z,73.56
2023-03-25T17:40:40.107Z,76.66
2023-03-25T17:43:06.603Z,81.10
2023-03-25T17:45:33.121Z,81.87
2023-03-25T17:47:59.626Z,81.73
2023-03-25T17:50:27.601Z,80.43
2023-03-25T17:52:55.251Z,83.39
2023-03-25T17:55:21.976Z,82.49
2023-03-25T17:57:49.825Z,87.51
2023-03-25T18:00:18.737Z,89.31
2023-03-25T18:02:46.615Z,90.53
2023-03-25T18:05:13.276Z,91.69
2023-03-25T18:07:40.215Z,91.72
2023-03-25T18:10:14.001Z,92.31
2023-03-25T18:12:40.467Z,94.67
2023-03-25T18:15:07.317Z,95.33
2023-03-25T18:17:33.825Z,95.26
2023-03-25T18:20:00.389Z,95.19
2023-03-25T18:22:26.825Z,94.08
2023-03-25T18:24:53.293Z,93.57
2023-03-25T18:27:23.790Z,93.03
2023-03-25T18:29:54.469Z,94.00
2023-03-25T18:32:21.111Z,95.11
2023-03-25T18:34:48.109Z,97.01
2023-03-25T18:37:14.598Z,97.74
2023-03-25T18:39:41.030Z,97.76
2023-03-25T18:42:07.939Z,96.42
2023-03-25T18:44:34.368Z,91.03
2023-03-25T18:47:00.908Z,93.20
2023-03-25T18:49:27.754Z,94.71
2023-03-25T18:51:54.198Z,94.94
2023-03-25T18:54:20.643Z,95.54
2023-03-25T18:56:47.217Z,95.62
2023-03-25T18:59:16.182Z,95.38
2023-03-25T19:01:42.810Z,95.52
2023-03-25T19:04:09.647Z,97.14
2023-03-25T19:06:39.024Z,97.63
2023-03-25T19:09:05.733Z,98.14
2023-03-25T19:11:33.845Z,97.62
2023-03-25T19:14:00.396Z,96.06
2023-03-25T19:16:27.005Z,95.30
2023-03-25T19:18:53.473Z,95.40
2023-03-25T19:21:20.274Z,95.29
2023-03-25T19:23:47.291Z,95.43
2023-03-25T19:26:13.839Z,96.02
2023-03-25T19:28:41.077Z,97.06
2023-03-25T19:31:07.636Z,97.30
2023-03-25T19:33:34.387Z,96.80
2023-03-25T19:36:01.876Z,95.33
2023-03-25T19:38:28.890Z,95.48
2023-03-25T19:41:06.769Z,95.92
2023-03-25T19:43:33.427Z,96.01
2023-03-25T19:46:00.486Z,95.95
2023-03-25T19:48:27.477Z,96.97
2023-03-25T19:50:56.844Z,96.77
2023-03-25T19:53:24.452Z,96.82
2023-03-25T19:55:51.948Z,95.55
2023-03-25T19:58:20.283Z,95.32
2023-03-25T20:00:47.419Z,95.01
2023-03-25T20:03:14.075Z,95.32
2023-03-25T20:05:41.071Z,95.63
2023-03-25T20:08:09.248Z,94.99
2023-03-25T20:10:37.697Z,94.91
2023-03-25T20:13:04.239Z,94.72
2023-03-25T20:15:31.009Z,95.69
2023-03-25T20:17:57.502Z,97.82
2023-03-25T20:20:24.903Z,96.34
2023-03-25T20:22:51.765Z,95.63
2023-03-25T20:25:18.925Z,95.69
2023-03-25T20:27:46.318Z,95.78
2023-03-25T20:30:14.265Z,95.69
2023-03-25T20:32:42.655Z,95.95
2023-03-25T20:35:13.196Z,95.54
2023-03-25T20:37:40.550Z,97.78
2023-03-25T20:40:11.038Z,97.75
2023-03-25T20:42:41.667Z,98.69
2023-03-25T20:45:09.251Z,97.45
2023-03-25T20:47:36.051Z,97.13
2023-03-25T20:50:03.461Z,96.77
2023-03-25T20:52:30.203Z,96.34
2023-03-25T20:54:56.828Z,98.07
2023-03-25T20:57:23.453Z,97.46
2023-03-25T20:59:52.745Z,96.92
2023-03-25T21:02:20.024Z,96.09
2023-03-25T21:04:46.846Z,97.31
2023-03-25T21:07:13.754Z,96.55
2023-03-25T21:09:40.206Z,97.34
2023-03-25T21:12:06.750Z,97.33
2023-03-25T21:14:33.221Z,98.17
2023-03-25T21:16:59.760Z,97.74
2023-03-25T21:19:26.174Z,97.14
2023-03-25T21:21:52.782Z,97.72
2023-03-25T21:24:21.607Z,97.53
2023-03-25T21:26:49.115Z,97.37
2023-03-25T21:29:15.595Z,96.58
2023-03-25T21:31:42.513Z,96.74
2023-03-25T21:34:09.001Z,96.16
2023-03-25T21:36:35.459Z,97.19
2023-03-25T21:39:02.389Z,97.02
2023-03-25T21:41:32.059Z,96.77
2023-03-25T21:43:58.556Z,95.46
2023-03-25T21:46:27.363Z,95.71
2023-03-25T21:48:55.202Z,96.15
2023-03-25T21:51:21.665Z,96.79
2023-03-25T21:53:48.215Z,97.37
2023-03-25T21:56:17.326Z,97.17
2023-03-25T21:58:44.455Z,96.61
2023-03-25T22:01:15.535Z,97.01
2023-03-25T22:03:45.467Z,97.92
2023-03-25T22:06:13.897Z,96.57
2023-03-25T22:08:40.805Z,97.01
2023-03-25T22:11:08.338Z,96.35
2023-03-25T22:13:35.069Z,97.39
2023-03-25T22:16:01.551Z,96.67
2023-03-25T22:18:28.435Z,96.44
2023-03-25T22:21:04.600Z,96.53
2023-03-25T22:23:31.039Z,96.77
2023-03-25T22:25:57.539Z,97.17
2023-03-25T22:28:24.012Z,97.68
2023-03-25T22:30:50.513Z,98.27
2023-03-25T22:33:17.185Z,98.27
2023-03-25T22:35:43.738Z,98.35
2023-03-25T22:38:10.187Z,98.12
2023-03-25T22:40:36.700Z,100.00
2023-03-25T22:43:03.277Z,100.00
2023-03-25T22:45:29.788Z,100.00
2023-03-25T22:47:56.358Z,99.77
2023-03-25T22:50:22.857Z,99.58
2023-03-25T22:52:49.402Z,99.15
2023-03-25T22:55:16.272Z,99.37
2023-03-25T22:57:42.762Z,98.48
2023-03-25T23:00:14.389Z,99.10
2023-03-25T23:02:41.367Z,99.39
2023-03-25T23:05:08.056Z,99.04
2023-03-25T23:07:34.556Z,99.23
2023-03-25T23:10:01.366Z,98.95
2023-03-25T23:12:27.871Z,98.86
2023-03-25T23:14:55.927Z,99.13
2023-03-25T23:17:23.394Z,99.22
2023-03-25T23:19:49.964Z,98.61
2023-03-25T23:22:17.208Z,99.19
2023-03-25T23:24:44.153Z,99.46
2023-03-25T23:27:11.661Z,98.66
2023-03-25T23:29:40.142Z,99.30
2023-03-25T23:32:07.416Z,99.02
2023-03-25T23:34:34.270Z,98.25
2023-03-25T23:37:01.633Z,98.00
2023-03-25T23:39:28.324Z,98.71
2023-03-25T23:41:55.472Z,98.55
2023-03-25T23:44:22.342Z,98.91
2023-03-25T23:46:51.159Z,100.00
2023-03-25T23:49:20.884Z,100.00
2023-03-25T23:51:47.533Z,100.00
2023-03-25T23:54:15.247Z,99.79
2023-03-25T23:56:42.264Z,99.29
2023-03-25T23:59:09.424Z,98.93
